CheckWX is a tool to help pilots better visualize weather data.  It is not intended as a substitute for an official pre-flight weather briefing.

01:52:51 UTC

URKA TAF
Anapa Airport
Anapa, Russian Federation
TAF URKA 181658Z 1818/1918 07003G08MPS 3100 BR SCT011 TEMPO 1818/1906 0500 FG BKN002 FM190600 04003G08MPS CAVOK

Mar-18@
18:00 UTC

Mar-18 @ 18:00 UTC

Mar-19@
06:00 UTC

Mar-19 @ 06:00 UTC

TAF URKA 181658Z 1818/1918 07003G08MPS 3100 BR SCT011
Wind
  • 070° at 6 KTS
  • {Gusting to 16 KTS
Conditions
Mist
Cloud Levels
  • Scattered at 1,100' AGL

Mar-18@
18:00 UTC

Mar-18 @ 18:00 UTC

Mar-19@
06:00 UTC

Mar-19 @ 06:00 UTC

TEMPO 1818/1906 0500 FG BKN002

Temporary

Temporary Changes expected for less than half the time period

Conditions
Fog
Cloud Levels
  • Broken at 200' AGL

Mar-19@
06:00 UTC

Mar-19 @ 06:00 UTC

Mar-19@
18:00 UTC

Mar-19 @ 18:00 UTC

FM190600 04003G08MPS CAVOK

From

From Standard forecast or significant change

Wind
  • 040° at 6 KTS
  • {Gusting to 16 KTS
Conditions
No significant weather
Cloud Levels
  • No significant clouds